Time;durP1;ratioP1;P1;durP2;ratioP2;P2;SDS_P1;SDS_P2;PMS_P1;PMS_P2;Temp;Humidity;BMP_temperature;BMP_pressure;BME280_temperature;BME280_humidity;BME280_pressure;Samples;Min_cycle;Max_cycle;Signal;HPM_P1;HPM_P2
2022/11/03 00:01:47;;;;;;;16.45;9.15;;;25.60;99.90;;;;;;5043219;28;20041;-62
2022/11/03 00:04:16;;;;;;;15.77;8.47;;;25.60;99.90;;;;;;5068823;28;20108;-61
2022/11/03 00:06:44;;;;;;;18.42;9.75;;;25.50;99.90;;;;;;5073415;28;20460;-61
2022/11/03 00:09:12;;;;;;;16.92;9.85;;;25.50;99.90;;;;;;5073810;28;20048;-60
2022/11/03 00:11:41;;;;;;;18.67;9.90;;;25.60;99.90;;;;;;5066362;28;20052;-61
2022/11/03 00:14:09;;;;;;;21.77;9.93;;;25.60;99.90;;;;;;5061906;28;20029;-60
2022/11/03 00:16:38;;;;;;;17.27;7.63;;;25.70;99.90;;;;;;5072042;28;20077;-62
2022/11/03 00:19:06;;;;;;;21.55;6.38;;;25.60;99.90;;;;;;5071951;28;20025;-62
2022/11/03 00:21:33;;;;;;;17.35;7.50;;;25.60;99.90;;;;;;5072056;28;20024;-62
2022/11/03 00:24:02;;;;;;;16.10;7.30;;;25.50;99.90;;;;;;5072168;28;20029;-61
2022/11/03 00:26:30;;;;;;;14.85;7.57;;;25.60;99.90;;;;;;5069224;28;20086;-63
2022/11/03 00:28:59;;;;;;;16.23;7.68;;;25.60;99.90;;;;;;5071978;28;20380;-62
2022/11/03 00:31:28;;;;;;;19.45;6.97;;;25.60;99.90;;;;;;5072088;28;20013;-62
2022/11/03 00:33:55;;;;;;;15.43;8.75;;;25.60;99.90;;;;;;5075941;28;20033;-62
2022/11/03 00:36:27;;;;;;;16.08;9.38;;;25.70;99.90;;;;;;5076439;28;20041;-62
2022/11/03 00:38:55;;;;;;;17.35;8.40;;;25.80;99.90;;;;;;5077666;28;20385;-62
2022/11/03 00:41:23;;;;;;;16.95;8.90;;;25.90;99.90;;;;;;5077236;28;20033;-62
2022/11/03 00:43:51;;;;;;;21.25;10.27;;;26.00;99.90;;;;;;5077147;28;20111;-62
2022/11/03 00:46:19;;;;;;;15.27;10.35;;;26.10;99.90;;;;;;5077327;28;20105;-61
2022/11/03 00:48:46;;;;;;;16.50;11.88;;;26.00;99.90;;;;;;5076923;28;20063;-62
2022/11/03 00:51:25;;;;;;;20.40;12.55;;;26.10;99.90;;;;;;5077340;28;20474;-62
2022/11/03 00:53:55;;;;;;;23.38;11.95;;;26.10;99.90;;;;;;5076965;28;20074;-62
2022/11/03 00:56:25;;;;;;;20.60;14.00;;;26.20;99.90;;;;;;5077276;28;20027;-62
2022/11/03 00:58:52;;;;;;;24.88;12.90;;;26.30;99.90;;;;;;5076998;28;20027;-62
2022/11/03 01:01:24;;;;;;;21.77;12.15;;;26.40;99.90;;;;;;5070529;28;20102;-62
2022/11/03 01:06:53;;;;;;;15.38;10.55;;;26.50;99.90;;;;;;5056807;28;20061;-61
2022/11/03 01:09:22;;;;;;;21.33;12.18;;;26.60;99.90;;;;;;5057133;28;20031;-62
2022/11/03 01:12:05;;;;;;;23.52;11.45;;;26.60;99.90;;;;;;5057904;28;20033;-62
2022/11/03 01:14:34;;;;;;;17.20;10.82;;;26.70;99.90;;;;;;5067777;28;20024;-63
2022/11/03 01:17:03;;;;;;;18.90;11.02;;;26.80;99.90;;;;;;5076577;28;20032;-62
2022/11/03 01:19:30;;;;;;;15.02;11.40;;;26.80;99.90;;;;;;5076335;28;20025;-62
2022/11/03 01:21:56;;;;;;;26.30;18.13;;;26.90;99.90;;;;;;5091982;28;20392;-62
2022/11/03 01:24:23;;;;;;;19.60;11.75;;;27.00;99.90;;;;;;5076162;28;20385;-63
2022/11/03 01:26:49;;;;;;;32.13;23.98;;;27.00;99.90;;;;;;5076331;28;20026;-62
2022/11/03 01:29:16;;;;;;;68.50;48.30;;;27.10;99.90;;;;;;5076322;28;20020;-62
2022/11/03 01:31:43;;;;;;;45.75;34.75;;;27.20;99.90;;;;;;5076111;28;20074;-63
2022/11/03 01:34:15;;;;;;;20.30;16.55;;;27.20;99.90;;;;;;5076172;28;20017;-61
2022/11/03 01:36:42;;;;;;;19.58;15.40;;;27.20;99.90;;;;;;5075995;28;20075;-62
2022/11/03 01:39:14;;;;;;;21.63;16.85;;;27.10;99.90;;;;;;5075988;28;20120;-61
2022/11/03 01:41:42;;;;;;;24.95;15.30;;;27.30;99.90;;;;;;5076026;28;20028;-62
2022/11/03 01:44:09;;;;;;;21.90;13.57;;;27.40;99.90;;;;;;5074906;28;20093;-62
2022/11/03 01:46:39;;;;;;;23.33;12.02;;;27.50;99.90;;;;;;5075919;28;20096;-62
2022/11/03 01:49:16;;;;;;;25.35;11.73;;;27.50;99.90;;;;;;5075915;28;20021;-61
2022/11/03 01:51:49;;;;;;;18.98;11.05;;;27.70;99.90;;;;;;5075738;28;20017;-61
2022/11/03 01:54:21;;;;;;;13.10;9.63;;;27.60;99.90;;;;;;5075760;28;20473;-61
2022/11/03 01:56:48;;;;;;;16.17;11.43;;;27.70;99.90;;;;;;5076039;28;20078;-62
2022/11/03 01:59:16;;;;;;;38.92;20.10;;;27.70;99.90;;;;;;5075611;28;20497;-61
2022/11/03 02:01:44;;;;;;;61.03;46.05;;;27.70;99.90;;;;;;5075807;28;20473;-61
2022/11/03 02:04:18;;;;;;;16.95;13.63;;;27.90;99.90;;;;;;5075653;28;20024;-61
2022/11/03 02:06:47;;;;;;;20.50;11.82;;;27.90;99.90;;;;;;5075533;28;20025;-62
2022/11/03 02:09:13;;;;;;;13.55;10.15;;;27.90;99.90;;;;;;5078196;28;20154;-62
2022/11/03 02:14:26;;;;;;;12.68;10.73;;;27.90;99.90;;;;;;5095327;28;20029;-61
2022/11/03 02:16:57;;;;;;;14.18;12.25;;;27.90;99.90;;;;;;5077019;28;20501;-61
2022/11/03 02:19:32;;;;;;;21.13;11.85;;;28.10;99.90;;;;;;5063691;28;20040;-62
2022/11/03 02:22:27;;;;;;;16.98;11.15;;;28.20;99.90;;;;;;5054512;28;20481;-61
2022/11/03 02:25:11;;;;;;;13.60;10.00;;;28.20;99.90;;;;;;4992084;28;20042;-61
2022/11/03 02:27:37;;;;;;;39.33;28.60;;;28.30;99.90;;;;;;4990682;28;20027;-61
2022/11/03 02:30:04;;;;;;;19.30;11.15;;;28.40;99.90;;;;;;4973867;28;20392;-62
2022/11/03 02:32:58;;;;;;;17.08;10.38;;;28.50;99.90;;;;;;4974374;28;20023;-61
2022/11/03 02:35:39;;;;;;;15.48;10.00;;;28.60;99.90;;;;;;4973851;28;20043;-62
2022/11/03 02:38:11;;;;;;;13.82;11.38;;;28.70;99.90;;;;;;4973978;28;20030;-61
2022/11/03 02:40:44;;;;;;;17.77;10.55;;;28.80;99.90;;;;;;4974161;28;20031;-62
2022/11/03 02:43:13;;;;;;;12.50;9.20;;;28.80;99.90;;;;;;4974131;28;20105;-62
2022/11/03 02:45:40;;;;;;;15.00;9.52;;;28.90;99.90;;;;;;4974032;28;20042;-62
2022/11/03 02:48:08;;;;;;;15.95;10.98;;;28.90;99.90;;;;;;4974090;28;20031;-62
2022/11/03 02:50:34;;;;;;;23.48;12.25;;;29.00;99.90;;;;;;4973975;28;20032;-62
2022/11/03 02:53:01;;;;;;;16.98;11.70;;;29.20;99.90;;;;;;4973850;28;20537;-61
2022/11/03 02:55:32;;;;;;;12.07;9.48;;;29.20;99.90;;;;;;5016735;28;20064;-61
2022/11/03 02:58:06;;;;;;;274.35;187.48;;;29.20;99.90;;;;;;5054811;28;20478;-62
2022/11/03 03:00:40;;;;;;;32.92;17.98;;;29.20;99.90;;;;;;5054552;28;20036;-62
2022/11/03 03:03:15;;;;;;;25.75;14.75;;;29.40;99.90;;;;;;5054522;28;20053;-62
2022/11/03 03:05:46;;;;;;;39.08;28.20;;;29.70;99.90;;;;;;5054300;28;20112;-62
2022/11/03 03:08:13;;;;;;;21.95;9.40;;;29.60;99.90;;;;;;5054380;28;20075;-61
2022/11/03 03:10:43;;;;;;;15.30;8.73;;;29.50;99.90;;;;;;5054219;28;20021;-62
2022/11/03 03:13:13;;;;;;;15.00;7.88;;;29.50;99.90;;;;;;5054220;28;20076;-61
2022/11/03 03:16:01;;;;;;;14.23;8.95;;;29.40;99.90;;;;;;5054455;28;20029;-62
2022/11/03 03:18:50;;;;;;;17.13;9.43;;;29.40;99.90;;;;;;4973328;28;20500;-62
2022/11/03 03:21:32;;;;;;;18.70;8.27;;;29.70;99.90;;;;;;4973295;28;20058;-62
2022/11/03 03:24:00;;;;;;;;;;;29.80;99.90;;;;;;4973581;28;20039;-62
2022/11/03 03:26:34;;;;;;;17.63;9.95;;;29.90;99.90;;;;;;4973211;28;20286;-62
2022/11/03 03:29:08;;;;;;;17.75;9.02;;;29.90;99.90;;;;;;4973410;28;20464;-62
2022/11/03 03:31:41;;;;;;;21.10;9.73;;;30.10;99.90;;;;;;4973187;28;20022;-62
2022/11/03 03:34:10;;;;;;;17.58;9.82;;;30.30;99.90;;;;;;4973310;28;20439;-62
2022/11/03 03:36:39;;;;;;;23.15;10.02;;;30.20;99.90;;;;;;4973025;28;20093;-62
2022/11/03 03:39:09;;;;;;;19.38;9.88;;;30.00;99.90;;;;;;4972847;28;20062;-62
2022/11/03 03:41:36;;;;;;;15.00;10.15;;;30.20;99.90;;;;;;4973253;28;20540;-62
2022/11/03 03:44:07;;;;;;;19.40;10.45;;;30.40;99.90;;;;;;4972911;28;20122;-62
2022/11/03 03:46:38;;;;;;;15.45;10.30;;;30.40;99.90;;;;;;4972888;28;20023;-62
2022/11/03 03:49:05;;;;;;;20.33;10.45;;;30.40;99.90;;;;;;4972994;28;20059;-62
2022/11/03 03:51:33;;;;;;;20.25;9.75;;;30.40;99.90;;;;;;4972919;28;20030;-62
2022/11/03 03:54:03;;;;;;;83.88;62.03;;;30.50;99.90;;;;;;4972741;28;20109;-62
2022/11/03 03:56:40;;;;;;;19.08;12.30;;;30.50;99.90;;;;;;5046279;28;20063;-62
2022/11/03 03:59:07;;;;;;;21.95;12.27;;;30.50;99.90;;;;;;5053472;28;20032;-62
2022/11/03 04:01:34;;;;;;;15.63;11.77;;;30.50;99.90;;;;;;5053358;28;20040;-62
2022/11/03 04:04:00;;;;;;;20.60;13.27;;;30.60;99.90;;;;;;5053236;28;20028;-62
2022/11/03 04:06:27;;;;;;;22.55;12.10;;;30.70;99.90;;;;;;5052644;28;20023;-62
2022/11/03 04:08:53;;;;;;;16.65;11.35;;;31.10;99.90;;;;;;5053308;28;20104;-62
2022/11/03 04:22:15;;;;;;;25.08;16.52;;;30.90;99.90;;;;;;5058183;28;20029;-63
2022/11/03 04:24:44;;;;;;;35.25;19.75;;;30.70;99.90;;;;;;5062675;28;20036;-63
2022/11/03 04:27:30;;;;;;;23.80;16.15;;;30.70;99.90;;;;;;5073158;28;20400;-62
2022/11/03 04:30:11;;;;;;;32.45;19.48;;;30.60;99.90;;;;;;5073130;28;20017;-62
2022/11/03 04:32:38;;;;;;;31.90;19.20;;;30.70;99.90;;;;;;5073332;28;20012;-63
2022/11/03 04:35:27;;;;;;;43.60;21.08;;;30.90;99.90;;;;;;5072930;28;20051;-63
2022/11/03 04:38:08;;;;;;;32.88;18.25;;;30.80;99.90;;;;;;5072996;28;20436;-63
2022/11/03 04:40:35;;;;;;;62.07;18.83;;;30.80;99.90;;;;;;5055081;28;20435;-63
2022/11/03 04:43:09;;;;;;;27.40;16.92;;;30.80;99.90;;;;;;5073155;28;20024;-64
2022/11/03 04:45:37;;;;;;;24.42;15.15;;;30.80;99.90;;;;;;5072797;28;20033;-63
2022/11/03 04:48:12;;;;;;;31.05;20.00;;;30.80;99.90;;;;;;5071715;28;20378;-64
2022/11/03 04:50:40;;;;;;;86.22;59.95;;;30.70;99.90;;;;;;5071470;28;20111;-63
2022/11/03 04:53:14;;;;;;;50.30;23.83;;;30.80;99.90;;;;;;5052762;28;20017;-63
2022/11/03 04:55:42;;;;;;;33.33;27.55;;;30.90;99.90;;;;;;5070989;28;20477;-63
2022/11/03 04:58:13;;;;;;;36.63;29.58;;;31.00;99.90;;;;;;5071368;28;20481;-62
2022/11/03 05:00:39;;;;;;;53.50;40.40;;;30.90;99.90;;;;;;5071682;28;20028;-62
2022/11/03 05:03:19;;;;;;;53.97;43.67;;;30.90;99.90;;;;;;5070828;28;20024;-63
2022/11/03 05:05:46;;;;;;;60.53;47.45;;;30.90;99.90;;;;;;5070806;28;20025;-63
2022/11/03 05:08:14;;;;;;;62.05;48.08;;;30.90;99.90;;;;;;5071748;28;20052;-63
2022/11/03 05:10:41;;;;;;;64.88;52.70;;;30.90;99.90;;;;;;5071390;28;20024;-63
2022/11/03 05:13:25;;;;;;;67.38;54.17;;;30.90;99.90;;;;;;5071390;28;20013;-63
2022/11/03 05:15:58;;;;;;;83.97;62.15;;;30.90;99.90;;;;;;5071164;28;20036;-63
2022/11/03 05:18:46;;;;;;;76.85;56.85;;;30.90;99.90;;;;;;5072787;28;20020;-65
2022/11/03 05:21:17;;;;;;;74.68;57.55;;;30.90;99.90;;;;;;5055406;28;20029;-64
2022/11/03 05:23:51;;;;;;;81.60;63.70;;;30.90;99.90;;;;;;5074508;28;20020;-64
2022/11/03 05:26:25;;;;;;;80.05;60.83;;;30.90;99.90;;;;;;5074314;28;20119;-64
2022/11/03 05:29:01;;;;;;;82.32;65.30;;;31.00;99.90;;;;;;5075528;28;20019;-64
2022/11/03 05:31:31;;;;;;;80.55;62.25;;;31.00;99.90;;;;;;5076353;28;20024;-64
2022/11/03 05:34:02;;;;;;;87.43;63.75;;;31.00;99.90;;;;;;5077361;28;20024;-63
2022/11/03 05:36:32;;;;;;;84.55;63.70;;;30.90;99.90;;;;;;5075042;28;20392;-64
2022/11/03 05:39:15;;;;;;;86.28;66.57;;;30.90;99.90;;;;;;5076881;28;20040;-64
2022/11/03 05:41:42;;;;;;;84.10;63.58;;;30.80;99.90;;;;;;5077102;28;20016;-64
2022/11/03 05:44:29;;;;;;;90.60;66.63;;;30.80;99.90;;;;;;5058336;28;20393;-63
2022/11/03 05:46:57;;;;;;;75.85;59.97;;;30.80;99.90;;;;;;5073195;28;20028;-62
2022/11/03 05:49:23;;;;;;;78.53;56.65;;;30.90;99.90;;;;;;5073676;28;20027;-63
2022/11/03 05:51:50;;;;;;;78.60;58.53;;;31.00;99.90;;;;;;5074235;28;20024;-62
2022/11/03 05:54:23;;;;;;;74.95;56.97;;;31.10;99.90;;;;;;5075648;28;20017;-61
2022/11/03 05:56:50;;;;;;;76.18;58.63;;;31.20;99.90;;;;;;5075650;28;20028;-62
2022/11/03 05:59:23;;;;;;;67.82;50.55;;;31.30;99.90;;;;;;5075819;28;20029;-63
2022/11/03 06:01:52;;;;;;;56.90;44.42;;;31.40;99.90;;;;;;5075926;28;20535;-61
2022/11/03 06:04:24;;;;;;;63.85;47.90;;;31.60;99.90;;;;;;5072151;28;20442;-63
2022/11/03 06:07:02;;;;;;;46.50;36.15;;;31.70;99.90;;;;;;5055409;28;20029;-63
2022/11/03 06:09:32;;;;;;;48.22;35.00;;;31.80;99.90;;;;;;5055536;28;20112;-62
2022/11/03 06:12:03;;;;;;;45.85;35.70;;;32.00;99.90;;;;;;5055453;28;20481;-63
2022/11/03 06:14:31;;;;;;;51.97;38.53;;;32.00;99.90;;;;;;5055287;28;20080;-63
2022/11/03 06:17:06;;;;;;;55.83;38.08;;;32.20;99.90;;;;;;5055260;28;20025;-62
2022/11/03 06:19:38;;;;;;;44.95;35.15;;;32.10;99.90;;;;;;5055145;28;20553;-62
2022/11/03 06:22:16;;;;;;;46.30;35.00;;;32.00;99.90;;;;;;5054649;28;20097;-62
2022/11/03 06:24:44;;;;;;;46.85;35.30;;;32.00;99.90;;;;;;5053135;28;20036;-62
2022/11/03 06:27:17;;;;;;;43.92;33.50;;;32.00;99.90;;;;;;5053128;28;20053;-63
2022/11/03 06:29:52;;;;;;;35.83;27.25;;;32.10;99.90;;;;;;5052774;28;20059;-62
2022/11/03 06:32:18;;;;;;;38.25;32.42;;;32.20;99.90;;;;;;5053468;28;20025;-61
2022/11/03 06:34:49;;;;;;;23.92;16.80;;;32.20;99.90;;;;;;5053057;28;20044;-63
2022/11/03 06:37:15;;;;;;;26.85;15.45;;;32.20;99.90;;;;;;5053738;28;20025;-63
2022/11/03 06:39:42;;;;;;;23.33;16.45;;;32.20;99.90;;;;;;5054873;28;20118;-64
2022/11/03 06:42:13;;;;;;;16.55;12.48;;;32.20;99.90;;;;;;5054669;28;20044;-63
2022/11/03 06:44:45;;;;;;;22.50;13.77;;;32.20;99.90;;;;;;5058390;28;20086;-63
2022/11/03 06:47:32;;;;;;;18.38;12.73;;;32.30;99.90;;;;;;5071798;28;20070;-63
2022/11/03 06:49:59;;;;;;;17.27;13.55;;;32.40;99.90;;;;;;5070930;28;20043;-63
2022/11/03 06:52:30;;;;;;;17.17;12.40;;;32.40;99.90;;;;;;5073457;28;20024;-63
2022/11/03 06:54:56;;;;;;;15.95;12.90;;;32.40;99.90;;;;;;5073340;28;20461;-63
2022/11/03 06:57:23;;;;;;;23.08;15.02;;;32.50;99.90;;;;;;5073415;28;20028;-62
2022/11/03 06:59:51;;;;;;;14.50;11.40;;;32.60;99.90;;;;;;5073657;28;20056;-62
2022/11/03 07:02:48;;;;;;;15.48;11.30;;;32.70;99.90;;;;;;5071851;28;20025;-62
2022/11/03 07:05:22;;;;;;;21.00;13.15;;;32.70;99.90;;;;;;5006006;28;20034;-63
2022/11/03 07:07:51;;;;;;;16.17;12.10;;;32.70;99.90;;;;;;5003329;28;20034;-63
2022/11/03 07:10:17;;;;;;;19.77;13.57;;;32.80;99.90;;;;;;5003508;28;20042;-63
2022/11/03 07:12:44;;;;;;;19.60;12.32;;;32.80;99.90;;;;;;5002594;28;20038;-63
2022/11/03 07:15:30;;;;;;;17.15;10.88;;;32.90;99.90;;;;;;4985152;28;20332;-63
2022/11/03 07:17:57;;;;;;;15.45;12.15;;;33.00;99.90;;;;;;5003815;28;20113;-63
2022/11/03 07:20:24;;;;;;;18.63;11.75;;;32.90;99.90;;;;;;5002612;28;20030;-63
2022/11/03 07:22:53;;;;;;;23.63;11.90;;;32.80;99.90;;;;;;5003141;28;20069;-63
2022/11/03 07:25:21;;;;;;;23.75;13.25;;;32.90;99.90;;;;;;5001402;28;20026;-62
2022/11/03 07:27:51;;;;;;;20.60;14.80;;;32.90;99.90;;;;;;5001417;28;20018;-63
2022/11/03 07:30:21;;;;;;;23.10;15.20;;;33.00;99.90;;;;;;4992708;28;20434;-62
2022/11/03 07:33:01;;;;;;;36.33;21.40;;;33.10;99.90;;;;;;4992304;28;20519;-62
2022/11/03 07:35:31;;;;;;;27.08;19.40;;;33.40;99.90;;;;;;5002640;28;20045;-63
2022/11/03 07:38:09;;;;;;;31.08;20.98;;;33.60;99.90;;;;;;5000898;28;20042;-62
2022/11/03 07:40:36;;;;;;;24.88;16.25;;;33.20;99.90;;;;;;4992249;28;20151;-61
2022/11/03 07:43:15;;;;;;;19.95;14.25;;;33.10;99.90;;;;;;4991393;28;20053;-63
2022/11/03 07:45:47;;;;;;;27.92;16.38;;;33.10;99.00;;;;;;4996429;28;20039;-62
2022/11/03 07:48:17;;;;;;;;;;;32.90;99.90;;;;;;4997229;28;20031;-63
2022/11/03 07:50:44;;;;;;;26.35;17.13;;;32.90;99.80;;;;;;5001929;28;19920;-63
2022/11/03 07:53:21;;;;;;;19.23;14.63;;;32.90;99.00;;;;;;5001229;28;20018;-63
2022/11/03 07:55:48;;;;;;;21.40;16.58;;;32.80;99.40;;;;;;4998279;28;20146;-62
2022/11/03 07:58:24;;;;;;;22.83;16.20;;;32.80;99.90;;;;;;5000029;28;20120;-62
2022/11/03 08:00:57;;;;;;;19.27;15.30;;;32.70;99.90;;;;;;5014017;28;20102;-62
2022/11/03 08:03:46;;;;;;;22.38;16.48;;;32.70;99.90;;;;;;5069667;28;20461;-62
2022/11/03 08:06:13;;;;;;;20.10;16.45;;;32.60;99.90;;;;;;5071306;28;20034;-62
2022/11/03 08:08:39;;;;;;;23.27;16.38;;;32.70;99.90;;;;;;5071198;28;20016;-62
2022/11/03 08:11:06;;;;;;;24.67;17.92;;;32.60;99.90;;;;;;5070449;28;20094;-62
2022/11/03 08:13:33;;;;;;;23.95;16.60;;;32.60;99.90;;;;;;5071799;28;20496;-62
2022/11/03 08:16:00;;;;;;;22.95;17.13;;;32.50;99.90;;;;;;5072899;28;20107;-62
2022/11/03 08:18:26;;;;;;;23.95;16.60;;;32.50;99.90;;;;;;5073276;28;20086;-62
2022/11/03 08:20:53;;;;;;;22.23;16.60;;;32.60;99.90;;;;;;5073467;28;20082;-63
2022/11/03 08:23:20;;;;;;;23.58;17.20;;;32.60;99.90;;;;;;5073402;28;20357;-63
2022/11/03 08:25:46;;;;;;;23.98;16.15;;;32.70;99.90;;;;;;5073138;28;20039;-63
2022/11/03 08:28:13;;;;;;;25.35;18.60;;;32.60;99.90;;;;;;5073126;28;20103;-63
2022/11/03 08:30:39;;;;;;;21.50;17.65;;;32.60;99.90;;;;;;5072503;28;20493;-62
2022/11/03 08:33:06;;;;;;;24.52;18.02;;;32.60;99.90;;;;;;5072157;28;20031;-62
2022/11/03 08:35:33;;;;;;;20.60;16.17;;;32.60;99.90;;;;;;5069646;28;20064;-63
2022/11/03 08:37:59;;;;;;;20.00;16.27;;;32.60;99.90;;;;;;5072099;28;20036;-63
2022/11/03 08:40:26;;;;;;;24.50;16.42;;;32.70;98.20;;;;;;5071339;28;20474;-63
2022/11/03 08:42:52;;;;;;;19.10;14.20;;;32.80;98.30;;;;;;5071248;28;20544;-62
2022/11/03 08:45:19;;;;;;;20.95;14.10;;;32.80;97.90;;;;;;5069953;28;20052;-62
2022/11/03 08:47:45;;;;;;;23.73;16.65;;;32.90;97.80;;;;;;5086598;28;20016;-63
2022/11/03 08:50:12;;;;;;;22.23;17.13;;;32.90;96.80;;;;;;5086446;28;20020;-63
2022/11/03 08:52:38;;;;;;;25.95;16.33;;;33.00;97.30;;;;;;5072507;28;20021;-63
2022/11/03 08:55:05;;;;;;;26.58;17.73;;;32.90;98.40;;;;;;5074581;28;20042;-63
2022/11/03 08:57:32;;;;;;;21.55;16.63;;;32.90;96.90;;;;;;5075849;28;20120;-61
2022/11/03 08:59:58;;;;;;;24.08;17.42;;;32.90;97.50;;;;;;5076971;28;20453;-63
2022/11/03 09:02:25;;;;;;;23.42;16.13;;;32.80;97.40;;;;;;5080901;28;20108;-64
2022/11/03 09:04:51;;;;;;;21.15;15.57;;;32.80;98.80;;;;;;5076405;28;20016;-63
2022/11/03 09:07:18;;;;;;;22.33;15.57;;;32.90;97.50;;;;;;5073151;28;20036;-63
2022/11/03 09:09:44;;;;;;;25.73;16.15;;;32.80;98.10;;;;;;5075726;28;20478;-63
2022/11/03 09:12:11;;;;;;;28.27;16.02;;;32.80;98.20;;;;;;5076184;28;20063;-63
2022/11/03 09:14:38;;;;;;;23.05;15.98;;;32.80;98.10;;;;;;5084105;28;20016;-63
2022/11/03 09:17:04;;;;;;;35.20;22.40;;;32.90;97.30;;;;;;5090654;28;20035;-62
2022/11/03 09:19:31;;;;;;;30.13;20.80;;;32.90;97.10;;;;;;5073530;28;20065;-63
2022/11/03 09:21:59;;;;;;;30.02;19.00;;;32.90;97.10;;;;;;5075220;28;20029;-62
2022/11/03 09:24:26;;;;;;;23.95;16.42;;;32.80;97.10;;;;;;5076240;28;20032;-62
2022/11/03 09:26:52;;;;;;;27.42;17.25;;;32.90;97.30;;;;;;5079988;28;20028;-62
2022/11/03 09:29:19;;;;;;;23.38;14.93;;;32.80;98.90;;;;;;5085200;28;20106;-63
2022/11/03 09:31:45;;;;;;;19.02;14.25;;;32.80;99.10;;;;;;5084236;28;20016;-63
2022/11/03 09:34:12;;;;;;;23.02;15.15;;;32.70;99.30;;;;;;5078310;28;20052;-62
2022/11/03 09:36:39;;;;;;;25.70;14.60;;;32.80;99.60;;;;;;5055428;28;20049;-63
2022/11/03 09:39:06;;;;;;;21.45;12.55;;;32.70;99.80;;;;;;5073273;28;20111;-61
2022/11/03 09:41:32;;;;;;;18.58;11.60;;;32.70;99.30;;;;;;5074939;28;20380;-63
2022/11/03 09:44:00;;;;;;;16.05;11.18;;;32.70;98.20;;;;;;5078793;28;20040;-63
2022/11/03 09:46:28;;;;;;;15.93;11.77;;;32.50;98.00;;;;;;5077867;28;20287;-61
2022/11/03 09:48:55;;;;;;;31.27;16.55;;;32.50;99.60;;;;;;5076118;28;20019;-62
2022/11/03 09:51:25;;;;;;;30.23;17.67;;;32.60;98.50;;;;;;5089307;28;20032;-62
2022/11/03 09:53:52;;;;;;;31.73;17.15;;;32.60;98.30;;;;;;5076518;28;20427;-63
2022/11/03 09:56:21;;;;;;;32.90;20.17;;;32.50;98.40;;;;;;5078008;28;20024;-62
2022/11/03 09:58:48;;;;;;;38.35;22.85;;;32.50;99.10;;;;;;5077652;28;20441;-62
2022/11/03 10:01:15;;;;;;;41.58;20.02;;;32.50;99.50;;;;;;5078366;28;20024;-63
2022/11/03 10:03:42;;;;;;;24.58;16.85;;;32.50;99.20;;;;;;5079181;28;20115;-62
2022/11/03 10:06:09;;;;;;;19.90;14.07;;;32.40;98.80;;;;;;5076276;28;20032;-61
2022/11/03 10:08:38;;;;;;;37.42;15.40;;;32.30;98.40;;;;;;5076672;28;20107;-62
2022/11/03 10:11:08;;;;;;;24.15;16.17;;;32.30;98.30;;;;;;5075872;28;20025;-62
2022/11/03 10:13:39;;;;;;;27.30;16.73;;;32.40;98.60;;;;;;5075817;28;20416;-62
2022/11/03 10:16:08;;;;;;;34.20;20.48;;;32.40;98.60;;;;;;5076283;28;20568;-62
2022/11/03 10:18:36;;;;;;;42.67;22.83;;;32.40;98.30;;;;;;5076733;28;20024;-62
2022/11/03 10:21:06;;;;;;;64.47;35.53;;;32.30;98.40;;;;;;5076399;28;20020;-62
2022/11/03 10:23:33;;;;;;;59.70;31.45;;;32.30;99.10;;;;;;5076253;28;20028;-63
2022/11/03 10:26:09;;;;;;;81.20;43.78;;;32.30;98.90;;;;;;5075617;28;20072;-62
2022/11/03 10:28:36;;;;;;;111.50;56.22;;;32.30;99.00;;;;;;5073625;28;20054;-63
2022/11/03 10:31:17;;;;;;;61.75;35.75;;;32.20;99.50;;;;;;5074527;28;20024;-63
2022/11/03 10:33:54;;;;;;;55.60;28.38;;;32.20;99.40;;;;;;5074470;28;20474;-63
2022/11/03 10:36:25;;;;;;;62.78;28.67;;;32.20;99.90;;;;;;5073811;28;20040;-62
2022/11/03 10:38:52;;;;;;;52.20;29.13;;;32.20;99.90;;;;;;5074440;28;20530;-64
2022/11/03 10:41:21;;;;;;;54.63;27.13;;;32.00;99.90;;;;;;5074589;28;20023;-64
2022/11/03 10:44:03;;;;;;;55.58;26.17;;;32.00;99.90;;;;;;5074721;28;20469;-63
2022/11/03 10:46:30;;;;;;;45.33;25.63;;;32.00;99.90;;;;;;5073711;28;20054;-64
2022/11/03 10:49:17;;;;;;;55.42;31.42;;;32.10;99.90;;;;;;5074566;28;20439;-64
2022/11/03 10:51:47;;;;;;;76.20;39.38;;;32.10;99.90;;;;;;5072740;28;20039;-63
2022/11/03 10:54:16;;;;;;;117.57;60.53;;;32.00;99.90;;;;;;5075421;28;20055;-62
2022/11/03 10:56:44;;;;;;;109.80;60.28;;;32.00;99.90;;;;;;5071463;28;20489;-63
2022/11/03 10:59:32;;;;;;;127.78;71.25;;;32.00;99.90;;;;;;5073089;28;20031;-63
2022/11/03 11:01:59;;;;;;;147.32;80.20;;;32.00;99.90;;;;;;5071580;28;20021;-63
2022/11/03 11:04:26;;;;;;;142.68;78.20;;;31.80;99.90;;;;;;5073261;28;20020;-63
2022/11/03 11:06:52;;;;;;;134.55;77.22;;;31.80;99.90;;;;;;5071003;28;20012;-63
2022/11/03 11:09:26;;;;;;;118.63;74.35;;;31.90;99.90;;;;;;5074277;28;20448;-61
2022/11/03 11:12:16;;;;;;;118.20;73.88;;;31.70;99.90;;;;;;5073946;28;20079;-64
2022/11/03 11:14:55;;;;;;;123.20;69.35;;;31.70;99.90;;;;;;5072474;28;20029;-65
2022/11/03 11:17:44;;;;;;;115.72;67.95;;;31.60;99.90;;;;;;5074128;28;20035;-65
2022/11/03 11:20:30;;;;;;;102.65;60.88;;;31.60;99.90;;;;;;5072433;28;20032;-64
2022/11/03 11:23:26;;;;;;;94.22;56.08;;;31.50;99.90;;;;;;5074543;28;20028;-65
2022/11/03 11:26:10;;;;;;;102.78;53.88;;;31.40;99.90;;;;;;5073896;28;20016;-65
2022/11/03 11:28:39;;;;;;;94.40;55.17;;;31.40;99.90;;;;;;5073765;28;20028;-65
2022/11/03 11:31:26;;;;;;;94.82;54.47;;;31.40;99.90;;;;;;5073956;28;20021;-66
2022/11/03 11:34:16;;;;;;;111.38;55.67;;;31.40;99.90;;;;;;5071974;28;20017;-66
2022/11/03 11:36:44;;;;;;;144.73;80.53;;;31.40;99.90;;;;;;4971970;28;20046;-66
2022/11/03 11:39:20;;;;;;;356.27;191.57;;;31.30;99.90;;;;;;4972806;28;20035;-65
2022/11/03 11:42:08;;;;;;;491.45;287.10;;;31.20;99.90;;;;;;4973119;28;20114;-64
2022/11/03 11:44:44;;;;;;;243.45;129.98;;;31.20;99.90;;;;;;4972906;28;20086;-65
2022/11/03 11:47:32;;;;;;;132.43;70.22;;;31.20;99.90;;;;;;4972947;28;20031;-64
2022/11/03 11:50:22;;;;;;;183.95;98.07;;;31.10;99.90;;;;;;4972852;28;20023;-66
2022/11/03 11:52:55;;;;;;;209.38;115.88;;;31.00;99.90;;;;;;4972577;28;20033;-65
2022/11/03 11:55:24;;;;;;;160.68;91.82;;;30.90;99.90;;;;;;4972858;28;20041;-65
2022/11/03 11:57:52;;;;;;;147.57;80.20;;;30.90;99.90;;;;;;4966141;28;20038;-64
2022/11/03 12:00:25;;;;;;;128.07;81.05;;;31.00;99.90;;;;;;4961957;28;20074;-64
2022/11/03 12:02:55;;;;;;;175.68;105.35;;;31.00;99.90;;;;;;4971869;28;20122;-66
2022/11/03 12:05:27;;;;;;;238.95;146.07;;;31.00;99.90;;;;;;4960587;28;20115;-65
2022/11/03 12:07:54;;;;;;;219.25;135.10;;;30.80;99.90;;;;;;5033111;28;20057;-66
2022/11/03 12:10:25;;;;;;;193.90;116.50;;;30.80;99.90;;;;;;5044540;28;20104;-66
2022/11/03 12:12:53;;;;;;;175.82;95.07;;;30.90;99.90;;;;;;5032960;28;20359;-66
2022/11/03 12:15:49;;;;;;;174.10;99.15;;;30.90;99.90;;;;;;5045531;28;20037;-65
2022/11/03 12:18:37;;;;;;;238.43;148.00;;;30.90;99.90;;;;;;5034315;28;20116;-65
2022/11/03 12:21:25;;;;;;;187.88;111.95;;;30.90;99.90;;;;;;5047341;28;20040;-64
2022/11/03 12:23:51;;;;;;;196.20;117.95;;;30.80;99.90;;;;;;4980335;28;20047;-65
2022/11/03 12:26:39;;;;;;;199.32;117.28;;;30.80;99.90;;;;;;4980677;28;20146;-64
2022/11/03 12:29:06;;;;;;;228.05;137.48;;;30.80;99.90;;;;;;4972378;28;20059;-65
2022/11/03 12:31:32;;;;;;;155.30;89.43;;;30.70;99.90;;;;;;4972991;28;20022;-62
2022/11/03 12:33:59;;;;;;;134.68;81.57;;;30.70;99.90;;;;;;4972637;28;20105;-65
2022/11/03 12:36:25;;;;;;;121.47;71.20;;;30.70;99.90;;;;;;4972540;28;20051;-65
2022/11/03 12:38:53;;;;;;;112.53;60.88;;;30.60;99.90;;;;;;4972533;28;20101;-65
2022/11/03 12:41:20;;;;;;;100.03;56.05;;;30.60;99.90;;;;;;4972564;28;20125;-66
2022/11/03 12:43:49;;;;;;;108.43;58.95;;;30.50;99.90;;;;;;4972244;28;20027;-66
2022/11/03 12:46:16;;;;;;;178.10;128.13;;;30.50;99.90;;;;;;4972310;28;20039;-66
2022/11/03 12:48:43;;;;;;;133.00;91.97;;;30.50;99.90;;;;;;4972575;28;20440;-65
2022/11/03 12:51:12;;;;;;;226.35;169.07;;;30.50;99.90;;;;;;4988033;28;20042;-66
2022/11/03 12:53:39;;;;;;;177.38;124.15;;;30.50;99.90;;;;;;4988082;28;20030;-65
2022/11/03 12:56:07;;;;;;;122.50;78.82;;;30.50;99.90;;;;;;4989166;28;20487;-66
2022/11/03 12:58:34;;;;;;;137.48;86.20;;;30.50;99.90;;;;;;4989732;28;20029;-65
2022/11/03 13:01:01;;;;;;;151.05;94.82;;;30.40;99.90;;;;;;5022212;28;20033;-65
2022/11/03 13:03:28;;;;;;;130.77;77.63;;;30.40;99.90;;;;;;5051284;28;20070;-65